Time;durP1;ratioP1;P1;durP2;ratioP2;P2;SDS_P1;SDS_P2;PMS_P1;PMS_P2;Temp;Humidity;BMP_temperature;BMP_pressure;BME280_temperature;BME280_humidity;BME280_pressure;Samples;Min_cycle;Max_cycle;Signal;HPM_P1;HPM_P2
2022/10/04 00:03:11;;;;;;;6.35;1.48;;;;;;;12.77;91.11;100547.44;10457204;28;20449;-72
2022/10/04 00:08:31;;;;;;;5.78;1.45;;;;;;;12.71;90.49;100539.75;10423213;28;20044;-72
2022/10/04 00:13:37;;;;;;;6.07;1.42;;;;;;;12.60;91.71;100540.94;10439615;28;20513;-72
2022/10/04 00:18:44;;;;;;;7.88;1.40;;;;;;;12.70;90.66;100551.19;10439235;28;20052;-72
2022/10/04 00:23:46;;;;;;;5.82;1.25;;;;;;;12.54;91.91;100551.69;10456858;28;20041;-72
2022/10/04 00:28:49;;;;;;;6.40;1.20;;;;;;;12.48;92.80;100548.38;10457252;28;20412;-72
2022/10/04 00:34:02;;;;;;;5.00;1.20;;;;;;;12.57;91.67;100546.31;10456920;28;20041;-72
2022/10/04 00:39:04;;;;;;;3.90;1.00;;;;;;;12.65;90.98;100543.41;10456646;28;20040;-72
2022/10/04 00:44:15;;;;;;;4.82;1.60;;;;;;;12.57;92.02;100540.16;10439438;28;20045;-73
2022/10/04 00:49:22;;;;;;;3.53;1.30;;;;;;;12.48;92.68;100538.69;10456012;28;20482;-72
2022/10/04 00:54:53;;;;;;;4.50;1.40;;;;;;;12.61;91.45;100541.78;10460754;28;20451;-72
2022/10/04 00:59:58;;;;;;;11.20;1.50;;;;;;;12.57;91.08;100546.31;10446722;28;20430;-72
2022/10/04 01:05:20;;;;;;;4.65;1.63;;;;;;;12.55;92.01;100536.72;10464363;28;20059;-72
2022/10/04 01:10:29;;;;;;;3.25;1.00;;;;;;;12.55;91.02;100532.31;10463986;28;20033;-72
2022/10/04 01:15:41;;;;;;;4.60;1.55;;;;;;;12.51;91.20;100524.53;10463917;28;20132;-72
2022/10/04 01:21:02;;;;;;;4.65;1.38;;;;;;;12.41;92.36;100523.13;10463701;28;20060;-72
2022/10/04 01:26:25;;;;;;;9.45;1.40;;;;;;;12.57;90.75;100519.97;10463032;28;20509;-72
2022/10/04 01:31:32;;;;;;;7.20;1.35;;;;;;;12.43;91.29;100516.88;10462718;28;20406;-72
2022/10/04 01:36:35;;;;;;;9.93;1.65;;;;;;;12.41;91.06;100523.13;10462309;28;20045;-72
2022/10/04 01:41:55;;;;;;;3.65;1.30;;;;;;;12.14;93.77;100524.84;10464094;28;20071;-72
2022/10/04 01:47:02;;;;;;;5.78;1.67;;;;;;;12.27;92.41;100519.16;10462578;28;20124;-72
2022/10/04 01:52:18;;;;;;;3.00;1.13;;;;;;;12.24;93.02;100531.53;10428045;28;20490;-72
2022/10/04 01:57:29;;;;;;;7.13;1.77;;;;;;;12.22;92.93;100521.06;10461857;28;20379;-72
2022/10/04 02:02:44;;;;;;;5.32;1.88;;;;;;;12.37;91.89;100530.25;10443666;28;20461;-72
2022/10/04 02:07:47;;;;;;;8.20;1.50;;;;;;;12.34;91.71;100525.06;10442859;28;20092;-72
2022/10/04 02:12:53;;;;;;;8.00;1.52;;;;;;;12.24;92.64;100515.72;10461059;28;20044;-72
2022/10/04 02:17:56;;;;;;;5.22;1.58;;;;;;;12.32;92.54;100513.72;10461927;28;20057;-72
2022/10/04 02:23:02;;;;;;;6.72;1.30;;;;;;;12.28;92.48;100517.38;10461690;28;20037;-72
2022/10/04 02:28:09;;;;;;;4.57;1.40;;;;;;;12.17;92.98;100516.81;10462036;28;20049;-72
2022/10/04 02:33:11;;;;;;;4.95;1.75;;;;;;;12.11;93.37;100510.84;10461744;28;20045;-73
2022/10/04 02:38:27;;;;;;;4.97;1.40;;;;;;;12.26;91.90;100506.00;10461230;28;20045;-73
2022/10/04 02:43:37;;;;;;;5.57;1.30;;;;;;;11.96;94.62;100502.53;10443677;28;20525;-73
2022/10/04 02:48:44;;;;;;;7.78;1.65;;;;;;;12.21;92.21;100510.53;10460516;28;20095;-73
2022/10/04 02:54:01;;;;;;;4.72;1.90;;;;;;;12.12;92.48;100509.91;10442066;28;20148;-73
2022/10/04 02:59:05;;;;;;;6.93;1.73;;;;;;;12.10;92.39;100506.47;10441947;28;20116;-73
2022/10/04 03:04:10;;;;;;;5.35;1.80;;;;;;;12.16;92.37;100491.38;10441460;28;20045;-73
2022/10/04 03:09:13;;;;;;;4.45;1.50;;;;;;;12.28;91.62;100505.03;10458862;28;20049;-72
2022/10/04 03:14:19;;;;;;;5.63;1.50;;;;;;;12.02;93.44;100494.44;10458768;28;20077;-73
2022/10/04 03:19:23;;;;;;;6.33;1.53;;;;;;;11.97;94.04;100488.47;10459107;28;20426;-73
2022/10/04 03:24:36;;;;;;;7.43;1.60;;;;;;;12.02;94.41;100495.31;10458681;28;20075;-73
2022/10/04 03:29:42;;;;;;;9.32;2.05;;;;;;;11.99;94.20;100490.13;10458820;28;20110;-73
2022/10/04 03:34:52;;;;;;;5.27;1.20;;;;;;;12.03;93.98;100496.16;10458694;28;20041;-73
2022/10/04 03:39:55;;;;;;;8.18;1.75;;;;;;;11.91;95.02;100497.41;10458549;28;20490;-73
2022/10/04 03:45:05;;;;;;;4.82;1.20;;;;;;;12.09;94.02;100496.00;10458936;28;20067;-73
2022/10/04 03:50:24;;;;;;;6.32;1.42;;;;;;;11.86;95.72;100492.28;10440018;28;20079;-73
2022/10/04 03:55:52;;;;;;;5.15;1.30;;;;;;;11.83;96.82;100494.13;10458713;28;20091;-72
2022/10/04 04:01:10;;;;;;;5.78;1.40;;;;;;;12.04;94.97;100495.25;10485389;22;20098;-81
2022/10/04 04:06:15;;;;;;;5.13;1.55;;;;;;;11.91;95.73;100494.78;10600189;28;20538;-80
2022/10/04 04:11:22;;;;;;;6.72;1.45;;;;;;;11.99;95.83;100491.88;10601165;28;20043;-80
2022/10/04 04:16:27;;;;;;;5.97;1.80;;;;;;;12.02;95.02;100495.31;10599886;28;20043;-80
2022/10/04 04:21:30;;;;;;;6.38;1.80;;;;;;;11.93;96.33;100489.44;10600633;28;20048;-80
2022/10/04 04:26:44;;;;;;;6.72;1.60;;;;;;;11.92;95.73;100493.88;10601855;28;20044;-80
2022/10/04 04:31:57;;;;;;;10.07;1.92;;;;;;;11.98;95.51;100488.41;10582218;28;20488;-81
2022/10/04 04:37:01;;;;;;;6.20;1.50;;;;;;;12.03;95.39;100502.28;10599983;28;20040;-81
2022/10/04 04:42:14;;;;;;;10.20;1.98;;;;;;;11.98;95.70;100504.19;10598107;28;20061;-80
2022/10/04 04:47:39;;;;;;;5.97;1.85;;;;;;;11.85;96.20;100502.84;10598848;28;20086;-80
2022/10/04 04:52:49;;;;;;;9.52;2.25;;;;;;;11.70;97.11;100500.63;10579678;28;20044;-80
2022/10/04 04:57:54;;;;;;;6.15;1.70;;;;;;;11.80;96.85;100502.94;10598971;28;20051;-80
2022/10/04 05:02:59;;;;;;;6.03;2.00;;;;;;;11.89;95.64;100506.25;10602011;28;20031;-80
2022/10/04 05:08:19;;;;;;;9.18;1.90;;;;;;;11.79;96.73;100509.13;10600760;28;20036;-80
2022/10/04 05:13:27;;;;;;;6.88;1.90;;;;;;;11.72;96.64;100509.34;10598853;28;20516;-80
2022/10/04 05:18:32;;;;;;;6.65;2.08;;;;;;;11.80;95.17;100516.13;10599570;28;20059;-80
2022/10/04 05:23:34;;;;;;;5.10;2.10;;;;;;;11.62;97.30;100524.56;10580510;28;20040;-80
2022/10/04 05:28:35;;;;;;;7.50;1.70;;;;;;;11.89;93.67;100514.16;10598740;28;20121;-80
2022/10/04 05:33:45;;;;;;;8.60;2.17;;;;;;;11.82;93.80;100527.53;10598437;28;20096;-80
2022/10/04 05:39:03;;;;;;;5.95;1.88;;;;;;;11.88;93.49;100528.25;10600301;28;20051;-80
2022/10/04 05:44:24;;;;;;;10.77;2.00;;;;;;;11.69;94.48;100528.75;10608229;28;20036;-80
2022/10/04 05:49:32;;;;;;;7.85;2.40;;;;;;;11.68;94.81;100534.03;10608565;28;20050;-80
2022/10/04 05:54:34;;;;;;;6.40;3.17;;;;;;;11.58;95.45;100541.34;10589747;28;20040;-80
2022/10/04 06:00:16;;;;;;;7.10;2.85;;;;;;;11.67;94.66;100559.50;10607581;28;20063;-80
2022/10/04 06:05:43;;;;;;;4.68;1.77;;;;;;;11.81;93.50;100559.13;10537754;28;20059;-80
2022/10/04 06:11:01;;;;;;;6.38;1.70;;;;;;;12.07;91.57;100551.34;10592071;28;20082;-80
2022/10/04 06:16:22;;;;;;;7.90;1.92;;;;;;;12.03;91.31;100562.03;10607775;28;20083;-79
2022/10/04 06:21:26;;;;;;;6.05;2.08;;;;;;;11.93;91.84;100564.06;10607941;28;20054;-80
2022/10/04 06:26:37;;;;;;;12.38;2.33;;;;;;;12.03;91.17;100559.41;10594964;28;20040;-79
2022/10/04 06:32:07;;;;;;;11.90;1.80;;;;;;;12.24;89.27;100561.41;10626320;28;20043;-81
2022/10/04 06:37:24;;;;;;;7.60;2.20;;;;;;;12.08;90.08;100558.34;10621300;28;20071;-79
2022/10/04 06:43:01;;;;;;;6.03;2.17;;;;;;;12.04;90.76;100564.66;10606114;28;20035;-79
2022/10/04 06:48:24;;;;;;;7.50;1.85;;;;;;;12.22;89.83;100575.53;10604292;28;20055;-79
2022/10/04 06:53:58;;;;;;;6.05;1.80;;;;;;;12.22;90.64;100580.78;10630855;28;20096;-80
2022/10/04 06:59:32;;;;;;;6.88;1.50;;;;;;;12.51;87.60;100587.84;10606256;28;20044;-79
2022/10/04 07:04:40;;;;;;;2.95;1.23;;;;;;;12.52;87.92;100585.13;10615447;28;20039;-79
2022/10/04 07:10:18;;;;;;;6.57;1.85;;;;;;;12.70;87.13;100591.59;10626631;28;20044;-81
2022/10/04 07:15:28;;;;;;;7.05;1.73;;;;;;;12.85;86.15;100591.13;10613840;27;20043;-78
2022/10/04 07:20:34;;;;;;;6.95;1.52;;;;;;;13.01;85.56;100586.22;10621221;28;20058;-79
2022/10/04 07:25:42;;;;;;;5.88;2.00;;;;;;;12.96;88.27;100587.28;10586031;28;20087;-79
2022/10/04 07:31:02;;;;;;;6.95;1.60;;;;;;;13.04;88.14;100596.66;10602410;28;20124;-80
2022/10/04 07:36:09;;;;;;;4.65;1.23;;;;;;;13.53;82.26;100599.47;10600768;28;20044;-79
2022/10/04 07:41:34;;;;;;;6.63;1.75;;;;;;;13.40;84.29;100600.81;10580124;28;20062;-79
2022/10/04 07:46:45;;;;;;;3.95;1.55;;;;;;;13.65;82.99;100599.03;10562442;28;20079;-78
2022/10/04 07:52:19;;;;;;;5.20;2.00;;;;;;;13.75;81.94;100607.50;10584544;28;20047;-78
2022/10/04 07:57:39;;;;;;;9.02;1.63;;;;;;;13.61;82.46;100615.91;10593574;28;20043;-79
2022/10/04 08:02:47;;;;;;;5.78;1.35;;;;;;;13.72;82.30;100612.88;10595583;28;20055;-79
2022/10/04 08:07:59;;;;;;;7.50;1.77;;;;;;;13.96;80.96;100616.44;10581954;28;20043;-79
2022/10/04 08:13:20;;;;;;;5.70;1.70;;;;;;;14.19;78.32;100616.44;10603074;28;20043;-79
2022/10/04 08:18:28;;;;;;;6.43;1.98;;;;;;;13.85;82.24;100622.09;10600834;28;20047;-79
2022/10/04 08:23:52;;;;;;;8.55;2.13;;;;;;;13.87;82.24;100625.56;10594271;28;20036;-78
2022/10/04 08:34:43;;;;;;;6.32;1.75;;;;;;;14.03;80.80;100641.69;10618416;28;20051;-78
2022/10/04 08:39:55;;;;;;;6.82;2.33;;;;;;;13.96;81.29;100641.09;10598659;28;20039;-80
2022/10/04 08:45:44;;;;;;;6.22;2.47;;;;;;;14.29;79.17;100638.97;10604619;28;20455;-78
2022/10/04 08:51:24;;;;;;;5.07;1.55;;;;;;;14.23;78.99;100641.00;10552259;28;20063;-79
2022/10/04 08:56:51;;;;;;;5.43;1.80;;;;;;;14.35;77.50;100644.03;10592250;28;20052;-78
2022/10/04 09:02:24;;;;;;;7.55;1.73;;;;;;;14.62;73.58;100652.75;10576310;28;20040;-77
2022/10/04 09:08:13;;;;;;;6.93;1.52;;;;;;;14.24;76.68;100653.28;10601507;28;20049;-79
2022/10/04 09:13:41;;;;;;;6.85;1.70;;;;;;;14.28;78.12;100649.59;10467968;28;20045;-78
2022/10/04 09:18:56;;;;;;;6.75;1.80;;;;;;;14.66;76.09;100648.19;10479433;28;20474;-78
2022/10/04 09:24:34;;;;;;;11.98;1.95;;;;;;;14.78;73.67;100646.84;10482100;28;20064;-78
2022/10/04 09:29:51;;;;;;;5.00;1.30;;;;;;;15.21;73.09;100647.78;10466303;28;20079;-78
2022/10/04 09:34:58;;;;;;;5.57;1.67;;;;;;;15.20;71.73;100638.09;10491503;28;20060;-78
2022/10/04 09:40:38;;;;;;;7.50;1.30;;;;;;;15.16;71.70;100640.00;10490682;28;20064;-79
2022/10/04 09:45:54;;;;;;;8.07;1.20;;;;;;;15.20;70.21;100640.75;10467992;28;20430;-78
2022/10/04 09:51:06;;;;;;;4.35;0.90;;;;;;;15.32;69.18;100638.47;10598728;28;20432;-79
2022/10/04 09:56:14;;;;;;;3.65;1.20;;;;;;;15.51;66.50;100646.50;10591347;28;20041;-78
2022/10/04 10:02:04;;;;;;;5.63;1.77;;;;;;;15.58;67.04;100644.44;10606526;28;20416;-79
2022/10/04 10:07:34;;;;;;;5.10;1.40;;;;;;;15.19;71.27;100639.03;10553965;28;20077;-78
2022/10/04 10:18:20;;;;;;;4.10;1.02;;;;;;;15.89;69.58;100638.69;10598121;28;20466;-78
2022/10/04 10:23:37;;;;;;;3.53;1.10;;;;;;;16.01;68.23;100637.28;10598868;28;20039;-78
2022/10/04 10:28:41;;;;;;;;;;;;;;;16.65;66.27;100639.66;10596280;28;20061;-77
2022/10/04 10:34:12;;;;;;;4.18;1.00;;;;;;;16.42;64.75;100648.66;10598156;28;20022;-79
2022/10/04 10:39:35;;;;;;;4.85;1.13;;;;;;;15.92;66.64;100646.50;10582012;28;20060;-77
2022/10/04 10:45:13;;;;;;;4.13;1.00;;;;;;;16.16;65.29;100649.88;10605699;28;20043;-78
2022/10/04 10:50:59;;;;;;;4.28;1.00;;;;;;;16.01;67.69;100640.81;10595219;28;20048;-78
2022/10/04 10:56:03;;;;;;;4.10;1.20;;;;;;;16.43;67.74;100646.91;10595397;28;20047;-78
2022/10/04 11:01:35;;;;;;;4.75;1.20;;;;;;;16.34;66.89;100635.78;10611390;28;20039;-78
2022/10/04 11:06:49;;;;;;;3.22;0.98;;;;;;;16.39;65.88;100635.56;10604914;28;20047;-80
2022/10/04 11:12:09;;;;;;;3.50;0.88;;;;;;;16.28;64.81;100625.44;10620549;28;20040;-80
2022/10/04 11:17:45;;;;;;;2.42;0.80;;;;;;;16.48;66.23;100623.66;10611569;28;20047;-78
2022/10/04 11:23:30;;;;;;;5.43;1.30;;;;;;;16.96;63.73;100617.84;10612171;28;20052;-80
2022/10/04 11:28:49;;;;;;;4.67;0.90;;;;;;;16.81;62.85;100619.41;10612481;28;20058;-79
2022/10/04 11:34:16;;;;;;;3.60;1.05;;;;;;;17.15;60.58;100615.13;10624066;28;20035;-79
2022/10/04 11:39:54;;;;;;;4.97;1.23;;;;;;;17.33;61.98;100613.34;10596158;28;20063;-80
2022/10/04 11:45:16;;;;;;;2.60;0.60;;;;;;;17.79;60.99;100611.84;10614063;28;20032;-78
2022/10/04 11:50:54;;;;;;;3.10;0.88;;;;;;;18.06;59.08;100621.97;10629927;27;20047;-79
2022/10/04 11:56:21;;;;;;;3.20;0.88;;;;;;;18.24;57.54;100614.78;10631968;27;20035;-79
2022/10/04 12:01:58;;;;;;;3.15;0.90;;;;;;;17.96;59.03;100616.28;10603461;28;20046;-79
2022/10/04 12:07:21;;;;;;;2.72;0.80;;;;;;;17.98;57.77;100601.13;10625228;28;20048;-80
2022/10/04 12:12:52;;;;;;;3.17;0.88;;;;;;;17.46;56.13;100609.13;10616139;27;20032;-79
2022/10/04 12:18:18;;;;;;;3.17;0.85;;;;;;;17.56;57.90;100601.53;10632649;27;20035;-79
2022/10/04 12:23:23;;;;;;;;;;;;;;;17.21;60.06;100590.91;10616309;28;20073;-79
2022/10/04 12:28:43;;;;;;;4.90;1.33;;;;;;;17.23;58.40;100593.50;10629751;28;19927;-80
2022/10/04 12:34:22;;;;;;;3.35;0.75;;;;;;;17.12;58.64;100581.59;10614884;28;20090;-79
2022/10/04 12:39:42;;;;;;;3.78;1.00;;;;;;;17.19;59.82;100573.34;10614557;27;20031;-79
2022/10/04 12:44:44;;;;;;;1.55;0.70;;;;;;;17.14;58.46;100566.44;10613952;28;20047;-79
2022/10/04 12:50:12;;;;;;;2.83;0.70;;;;;;;16.74;59.43;100578.19;10633583;28;20054;-79
2022/10/04 12:55:46;;;;;;;3.83;0.80;;;;;;;16.99;57.75;100571.66;10612319;28;20048;-80
2022/10/04 13:00:51;;;;;;;3.00;0.90;;;;;;;17.04;57.97;100567.84;10616460;28;20069;-80
2022/10/04 13:06:08;;;;;;;3.55;0.70;;;;;;;16.69;59.91;100569.56;10641157;27;20039;-79
2022/10/04 13:11:16;;;;;;;3.17;0.65;;;;;;;16.58;61.24;100575.38;10641380;28;20051;-79
2022/10/04 13:16:32;;;;;;;3.33;0.80;;;;;;;16.89;58.73;100579.22;10640753;28;20039;-81
2022/10/04 13:22:26;;;;;;;3.30;0.75;;;;;;;17.14;57.78;100576.22;10637499;28;20043;-80
2022/10/04 13:27:56;;;;;;;3.25;0.77;;;;;;;16.96;58.45;100561.22;10638005;28;20059;-80
2022/10/04 13:33:28;;;;;;;3.10;0.80;;;;;;;16.65;59.32;100555.56;10639116;28;20051;-80
2022/10/04 13:38:40;;;;;;;2.50;0.80;;;;;;;16.92;59.19;100557.84;10639310;28;20070;-79
2022/10/04 13:43:41;;;;;;;1.67;0.88;;;;;;;16.97;56.96;100561.13;10637935;28;20064;-79
2022/10/04 13:48:50;;;;;;;3.28;0.60;;;;;;;16.75;58.07;100563.13;10639420;27;20047;-80
2022/10/04 14:00:05;;;;;;;1.92;0.82;;;;;;;16.64;59.55;100558.28;10636157;28;20051;-80
2022/10/04 14:05:31;;;;;;;2.22;0.70;;;;;;;17.03;57.10;100552.84;10616301;28;20027;-80
2022/10/04 14:10:45;;;;;;;1.73;0.73;;;;;;;17.11;54.68;100547.16;10637411;27;20072;-79
2022/10/04 14:16:17;;;;;;;1.50;0.40;;;;;;;17.09;54.01;100552.56;10619160;28;20060;-80
2022/10/04 14:21:34;;;;;;;1.35;0.50;;;;;;;16.69;56.01;100556.28;10610981;28;20192;-80
2022/10/04 14:27:05;;;;;;;2.67;0.60;;;;;;;16.46;57.30;100548.56;10603018;28;20405;-80
2022/10/04 14:32:50;;;;;;;2.25;0.50;;;;;;;16.39;58.62;100548.00;10602402;28;20500;-80
2022/10/04 14:38:13;;;;;;;2.75;0.60;;;;;;;16.60;56.60;100548.75;10582514;28;20489;-81
2022/10/04 14:43:39;;;;;;;1.90;0.80;;;;;;;16.92;54.17;100549.03;10600777;28;20035;-80
2022/10/04 14:49:10;;;;;;;2.05;0.70;;;;;;;16.74;53.92;100530.41;10583232;28;20044;-80
2022/10/04 14:54:28;;;;;;;1.92;0.82;;;;;;;16.95;52.71;100516.97;10583780;28;20048;-81
2022/10/04 14:59:43;;;;;;;4.05;2.17;;;;;;;16.92;53.29;100525.97;10588567;28;20401;-79
2022/10/04 15:04:47;;;;;;;2.40;1.00;;;;;;;16.36;55.21;100529.56;10603000;28;20044;-81
2022/10/04 15:09:58;;;;;;;3.15;0.88;;;;;;;16.25;55.62;100530.09;10600467;28;20045;-80
2022/10/04 15:15:19;;;;;;;1.55;0.60;;;;;;;16.19;57.41;100519.75;10599144;28;20035;-80
2022/10/04 15:20:55;;;;;;;3.17;0.60;;;;;;;16.23;55.88;100505.41;10597974;28;20047;-80
2022/10/04 15:26:48;;;;;;;1.52;0.65;;;;;;;15.99;58.15;100493.34;10599388;28;20051;-80
2022/10/04 15:32:18;;;;;;;1.75;0.68;;;;;;;15.66;60.01;100490.44;10600780;28;20184;-80
2022/10/04 15:37:24;;;;;;;1.30;0.60;;;;;;;15.49;60.71;100484.06;10598483;28;20047;-80
2022/10/04 15:42:32;;;;;;;2.13;0.80;;;;;;;15.41;61.11;100462.38;10599075;28;20070;-81
2022/10/04 15:47:55;;;;;;;1.63;0.57;;;;;;;15.27;61.48;100464.75;10597904;28;20062;-80
2022/10/04 15:53:15;;;;;;;1.35;0.60;;;;;;;15.12;62.30;100477.75;10580855;28;20095;-80
2022/10/04 15:58:40;;;;;;;2.53;0.90;;;;;;;15.07;63.44;100469.16;10599960;28;20087;-80
2022/10/04 16:04:08;;;;;;;2.78;0.98;;;;;;;14.91;64.18;100465.44;10592368;28;20130;-78
2022/10/04 16:09:32;;;;;;;1.27;0.80;;;;;;;14.78;65.25;100443.91;10567975;28;20071;-78
2022/10/04 16:14:55;;;;;;;2.55;1.00;;;;;;;14.54;67.96;100437.03;10586745;28;20481;-78
2022/10/04 16:20:11;;;;;;;2.47;1.02;;;;;;;14.35;69.58;100448.34;10586387;28;20489;-78
2022/10/04 16:25:37;;;;;;;2.25;1.10;;;;;;;14.22;71.72;100449.75;10551403;28;20055;-78
2022/10/04 16:30:48;;;;;;;2.63;1.50;;;;;;;14.16;73.91;100452.63;10584983;28;20078;-78
2022/10/04 16:36:15;;;;;;;3.22;1.30;;;;;;;14.07;76.51;100456.50;10550926;28;20495;-78
2022/10/04 16:41:28;;;;;;;;;;;;;;;13.96;77.84;100457.84;10585972;28;20500;-77
2022/10/04 16:46:37;;;;;;;6.32;2.70;;;;;;;14.10;77.12;100472.25;10584668;28;19924;-78
2022/10/04 16:52:12;;;;;;;5.75;2.10;;;;;;;13.75;77.88;100478.03;10586893;28;20075;-77
2022/10/04 16:57:21;;;;;;;5.35;2.13;;;;;;;13.49;79.49;100481.63;10586373;28;20064;-77
2022/10/04 17:02:44;;;;;;;9.38;2.70;;;;;;;13.58;79.69;100486.56;10589182;28;20093;-78
2022/10/04 17:08:19;;;;;;;5.05;2.42;;;;;;;13.34;80.84;100483.06;10612188;28;20048;-78
2022/10/04 17:13:47;;;;;;;3.20;2.20;;;;;;;12.96;82.88;100477.31;10626399;28;20069;-79
2022/10/04 17:19:02;;;;;;;6.20;3.83;;;;;;;12.90;83.59;100464.34;10624959;28;20035;-78
2022/10/04 17:24:15;;;;;;;7.57;3.85;;;;;;;12.71;84.58;100469.38;10626675;28;20023;-78
2022/10/04 17:29:27;;;;;;;5.63;4.53;;;;;;;12.61;85.56;100474.09;10630297;28;20027;-79
2022/10/04 17:34:47;;;;;;;7.05;5.63;;;;;;;12.51;85.67;100475.31;10626843;28;20096;-80
2022/10/04 17:40:06;;;;;;;6.45;5.47;;;;;;;12.36;86.19;100475.81;10608376;28;20043;-79
2022/10/04 17:45:28;;;;;;;9.35;5.53;;;;;;;12.14;86.87;100472.13;10606445;28;20417;-79
2022/10/04 17:56:44;;;;;;;5.68;3.55;;;;;;;11.90;88.33;100471.97;10587784;28;20039;-79
2022/10/04 18:02:03;;;;;;;4.78;3.65;;;;;;;11.90;88.40;100471.97;10604012;28;20042;-78
2022/10/04 18:07:10;;;;;;;8.93;4.07;;;;;;;11.75;89.52;100477.66;10604507;28;20477;-79
2022/10/04 18:12:41;;;;;;;5.50;2.63;;;;;;;11.82;88.57;100490.66;10590833;28;20055;-79
2022/10/04 18:17:49;;;;;;;4.70;2.63;;;;;;;11.74;88.06;100503.13;10602189;28;20386;-78
2022/10/04 18:23:15;;;;;;;6.43;3.05;;;;;;;11.71;88.64;100512.91;10592742;28;20040;-79
2022/10/04 18:28:21;;;;;;;7.03;2.73;;;;;;;11.53;90.04;100511.66;10599878;28;20065;-80
2022/10/04 18:33:48;;;;;;;5.17;3.40;;;;;;;11.43;90.43;100510.19;10601855;28;20039;-79
2022/10/04 18:39:13;;;;;;;5.63;3.90;;;;;;;11.36;90.89;100512.97;10604759;28;20108;-79
2022/10/04 18:44:18;;;;;;;5.50;3.50;;;;;;;11.15;92.10;100508.28;10585328;28;20043;-79
2022/10/04 18:49:25;;;;;;;5.22;3.22;;;;;;;11.11;91.97;100507.53;10605409;28;20055;-79
2022/10/04 18:54:40;;;;;;;4.25;3.85;;;;;;;11.06;92.85;100501.50;10603765;28;20485;-78
2022/10/04 19:05:50;;;;;;;11.10;6.20;;;;;;;10.84;94.66;100508.22;10593924;28;20039;-79
2022/10/04 19:10:58;;;;;;;11.60;7.18;;;;;;;10.76;96.21;100503.16;10601824;28;20089;-79
2022/10/04 19:16:18;;;;;;;14.43;8.30;;;;;;;10.80;96.36;100498.66;10603148;28;20054;-79
2022/10/04 19:21:38;;;;;;;22.23;9.60;;;;;;;10.71;96.43;100509.41;10603382;28;20051;-79
2022/10/04 19:26:46;;;;;;;12.52;8.15;;;;;;;10.72;95.82;100516.44;10573619;28;20043;-78
2022/10/04 19:32:03;;;;;;;10.35;5.68;;;;;;;10.88;94.49;100515.13;10596157;28;20048;-79
2022/10/04 19:37:16;;;;;;;9.57;4.45;;;;;;;11.01;92.53;100519.16;10597204;28;20056;-78
2022/10/04 19:42:32;;;;;;;7.05;3.92;;;;;;;11.01;91.63;100521.78;10575844;28;20044;-79
2022/10/04 19:47:56;;;;;;;5.30;3.63;;;;;;;10.94;91.64;100524.66;10582591;28;20069;-79
2022/10/04 19:53:06;;;;;;;2.90;2.13;;;;;;;10.88;91.23;100525.63;10599559;28;20035;-79
2022/10/04 19:58:37;;;;;;;3.25;2.17;;;;;;;10.98;90.09;100526.25;10579861;28;20052;-79
2022/10/04 20:03:39;;;;;;;4.32;2.60;;;;;;;10.97;88.88;100535.94;10407240;28;20061;-78
2022/10/04 20:09:24;;;;;;;4.40;2.15;;;;;;;10.96;88.76;100539.47;10422401;28;20084;-79
2022/10/04 20:14:25;;;;;;;3.90;1.85;;;;;;;10.78;88.94;100548.69;10413192;28;20443;-78
2022/10/04 20:19:27;;;;;;;4.13;2.85;;;;;;;10.55;91.61;100551.88;10428315;28;20137;-78
2022/10/04 20:24:49;;;;;;;3.45;2.70;;;;;;;10.47;92.63;100559.06;10426385;28;20053;-79
2022/10/04 20:29:50;;;;;;;4.85;4.22;;;;;;;10.35;93.79;100565.44;10422395;28;20081;-79
2022/10/04 20:34:54;;;;;;;5.82;4.35;;;;;;;10.29;94.27;100570.84;10419392;28;20073;-78
2022/10/04 20:39:55;;;;;;;5.05;3.72;;;;;;;10.17;95.15;100573.69;10528487;28;20063;-78
2022/10/04 20:45:09;;;;;;;7.30;3.33;;;;;;;10.30;95.36;100572.56;10594559;28;20057;-78
2022/10/04 20:50:16;;;;;;;4.28;3.00;;;;;;;10.34;94.75;100570.75;10584828;28;20040;-79
2022/10/04 20:55:26;;;;;;;4.30;3.05;;;;;;;10.32;94.05;100559.41;10584398;28;20047;-79
2022/10/04 21:00:32;;;;;;;4.70;3.38;;;;;;;10.05;95.17;100580.09;10600155;28;20095;-79
2022/10/04 21:05:34;;;;;;;3.70;2.80;;;;;;;10.15;94.91;100582.53;10581627;28;20078;-78
2022/10/04 21:10:36;;;;;;;3.42;2.70;;;;;;;9.91;96.61;100581.25;10591406;28;20050;-78
2022/10/04 21:15:54;;;;;;;3.83;2.72;;;;;;;9.71;96.92;100582.53;10590224;28;20047;-80
2022/10/04 21:20:55;;;;;;;5.78;2.95;;;;;;;9.43;99.14;100590.06;10596341;28;20052;-78
2022/10/04 21:26:17;;;;;;;3.35;3.03;;;;;;;9.44;100.00;100586.53;10589105;28;20044;-80
2022/10/04 21:31:19;;;;;;;5.63;3.30;;;;;;;9.80;97.49;100586.75;10616795;28;20044;-79
2022/10/04 21:36:21;;;;;;;4.03;3.03;;;;;;;9.48;99.37;100582.13;10618727;28;20075;-79
2022/10/04 21:41:22;;;;;;;4.53;3.60;;;;;;;9.37;100.00;100574.41;10618382;28;20047;-79
2022/10/04 21:46:24;;;;;;;4.88;3.40;;;;;;;9.24;100.00;100575.53;10600448;28;20103;-79
2022/10/04 21:51:25;;;;;;;7.30;3.45;;;;;;;9.16;100.00;100577.41;10602842;28;20096;-79
2022/10/04 21:56:27;;;;;;;4.75;3.33;;;;;;;8.98;100.00;100563.72;10599482;28;20118;-79
2022/10/04 22:01:29;;;;;;;4.03;3.67;;;;;;;8.95;100.00;100569.03;10594235;28;20108;-77
2022/10/04 22:06:30;;;;;;;8.15;3.83;;;;;;;9.34;99.39;100558.72;10574342;28;20067;-77
2022/10/04 22:11:32;;;;;;;5.47;3.88;;;;;;;9.28;99.05;100554.47;10592459;28;20112;-77
2022/10/04 22:16:33;;;;;;;5.28;3.70;;;;;;;9.06;100.00;100551.34;10574106;28;20040;-77
2022/10/04 22:21:35;;;;;;;5.22;4.60;;;;;;;8.92;100.00;100566.47;10573130;28;20048;-77
2022/10/04 22:26:36;;;;;;;8.30;4.80;;;;;;;8.91;100.00;100562.13;10593051;28;20055;-78
2022/10/04 22:31:38;;;;;;;5.13;4.45;;;;;;;8.80;100.00;100564.03;10592202;28;20050;-78
2022/10/04 22:36:46;;;;;;;7.30;4.60;;;;;;;8.95;100.00;100548.06;10572411;28;20066;-78
2022/10/04 22:41:58;;;;;;;7.72;4.90;;;;;;;8.97;100.00;100519.19;10590434;28;20093;-77
2022/10/04 22:47:00;;;;;;;11.27;6.38;;;;;;;8.70;100.00;100502.19;10574731;28;20489;-77
2022/10/04 22:52:10;;;;;;;9.07;5.45;;;;;;;8.52;100.00;100501.59;10590620;28;20047;-77
2022/10/04 22:57:14;;;;;;;5.60;5.10;;;;;;;8.51;100.00;100480.66;10590803;28;20032;-77
2022/10/04 23:02:27;;;;;;;5.25;4.10;;;;;;;8.54;100.00;100477.97;10572322;28;20106;-77
2022/10/04 23:07:28;;;;;;;8.25;4.50;;;;;;;8.43;100.00;100465.06;10554549;28;20112;-77
2022/10/04 23:12:35;;;;;;;5.43;4.50;;;;;;;8.38;100.00;100459.03;10591765;28;20042;-77
2022/10/04 23:17:38;;;;;;;5.32;3.42;;;;;;;8.54;100.00;100457.00;10586868;28;20078;-77
2022/10/04 23:22:44;;;;;;;4.65;3.50;;;;;;;8.45;100.00;100465.00;10586537;28;20213;-77
2022/10/04 23:27:46;;;;;;;7.50;4.40;;;;;;;8.86;100.00;100459.09;10568335;28;20040;-77
2022/10/04 23:32:51;;;;;;;8.05;3.72;;;;;;;8.79;100.00;100447.84;10566813;28;20413;-77
2022/10/04 23:37:53;;;;;;;4.15;3.83;;;;;;;8.71;99.78;100449.72;10584609;28;20044;-77
2022/10/04 23:42:56;;;;;;;8.52;4.90;;;;;;;8.70;99.75;100436.66;10583027;28;20044;-77
2022/10/04 23:48:00;;;;;;;5.78;4.15;;;;;;;8.54;100.00;100433.41;10566365;28;20039;-77
2022/10/04 23:53:05;;;;;;;7.75;4.45;;;;;;;8.54;99.79;100426.44;10549217;28;20079;-77
2022/10/04 23:58:16;;;;;;;9.48;3.72;;;;;;;8.40;100.00;100414.47;10584206;28;20043;-77
